createdAt,value
2023-12-31T00:01:09.347Z,88214.81
2023-12-31T00:03:54.740Z,88214.13
2023-12-31T00:06:39.669Z,88205.13
2023-12-31T00:09:24.846Z,88205.56
2023-12-31T00:12:09.916Z,88202.00
2023-12-31T00:14:55.104Z,88201.81
2023-12-31T00:17:40.347Z,88195.22
2023-12-31T00:20:25.305Z,88186.13
2023-12-31T00:23:10.616Z,88184.50
2023-12-31T00:25:55.790Z,88183.81
2023-12-31T00:28:41.119Z,88167.16
2023-12-31T00:31:26.211Z,88160.56
2023-12-31T00:34:11.260Z,88151.91
2023-12-31T00:36:56.431Z,88152.38
2023-12-31T00:39:41.542Z,88150.69
2023-12-31T00:42:26.591Z,88144.78
2023-12-31T00:45:11.649Z,88137.41
2023-12-31T00:47:57.057Z,88135.78
2023-12-31T00:50:41.891Z,88139.78
2023-12-31T00:53:27.061Z,88135.78
2023-12-31T00:56:12.256Z,88137.25
2023-12-31T00:58:57.215Z,88137.66
2023-12-31T01:01:42.460Z,88126.56
2023-12-31T01:04:27.487Z,88130.47
2023-12-31T01:07:12.702Z,88125.72
2023-12-31T01:09:57.823Z,88121.75
2023-12-31T01:12:42.874Z,88121.69
2023-12-31T01:15:28.131Z,88122.69
2023-12-31T01:18:13.231Z,88111.91
2023-12-31T01:20:58.211Z,88118.06
2023-12-31T01:23:46.025Z,88113.63
2023-12-31T01:26:32.479Z,88115.81
2023-12-31T01:29:17.606Z,88114.97
2023-12-31T01:32:02.599Z,88107.91
2023-12-31T01:34:47.836Z,88107.00
2023-12-31T01:37:32.783Z,88113.09
2023-12-31T01:40:17.985Z,88107.22
2023-12-31T01:43:03.298Z,88106.81
2023-12-31T01:45:48.179Z,88104.00
2023-12-31T01:48:33.448Z,88110.84
2023-12-31T01:51:18.518Z,88098.47
2023-12-31T01:54:03.984Z,88103.00
2023-12-31T01:56:48.895Z,88096.44
2023-12-31T01:59:34.043Z,88095.72
2023-12-31T02:02:19.022Z,88085.91
2023-12-31T02:05:04.346Z,88083.09
2023-12-31T02:07:49.323Z,88071.56
2023-12-31T02:10:34.417Z,88076.53
2023-12-31T02:13:19.564Z,88074.66
2023-12-31T02:16:04.595Z,88070.88
2023-12-31T02:18:49.768Z,88068.00
2023-12-31T02:21:34.820Z,88069.22
2023-12-31T02:24:19.960Z,88054.91
2023-12-31T02:27:05.029Z,88049.75
2023-12-31T02:29:50.113Z,88047.53
2023-12-31T02:32:35.198Z,88045.91
2023-12-31T02:35:20.041Z,88040.53
2023-12-31T02:38:05.457Z,88033.41
2023-12-31T02:40:50.550Z,88025.38
2023-12-31T02:43:35.651Z,88025.66
2023-12-31T02:46:20.752Z,88024.28
2023-12-31T02:49:05.727Z,88021.53
2023-12-31T02:51:50.979Z,88012.44
2023-12-31T02:54:36.147Z,88015.25
2023-12-31T02:57:21.238Z,88018.75
2023-12-31T03:00:06.380Z,88018.53
2023-12-31T03:02:51.548Z,88007.97
2023-12-31T03:05:36.608Z,88009.03
2023-12-31T03:08:21.613Z,88007.91
2023-12-31T03:11:06.807Z,87995.50
2023-12-31T03:13:51.919Z,88002.97
2023-12-31T03:16:37.233Z,87994.09
2023-12-31T03:19:22.264Z,87991.31
2023-12-31T03:22:07.532Z,87979.38
2023-12-31T03:24:52.512Z,87979.16
2023-12-31T03:27:37.545Z,87979.16
2023-12-31T03:30:22.683Z,87975.41
2023-12-31T03:33:08.000Z,87980.06
2023-12-31T03:35:53.077Z,87978.69
2023-12-31T03:38:37.994Z,87975.19
2023-12-31T03:41:23.261Z,87976.97
2023-12-31T03:44:08.352Z,87973.88
2023-12-31T03:46:53.463Z,87964.44
2023-12-31T03:49:38.659Z,87955.56
2023-12-31T03:52:23.715Z,87953.97
2023-12-31T03:55:08.905Z,87967.69
2023-12-31T03:57:54.078Z,87956.63
2023-12-31T04:00:39.299Z,87955.00
2023-12-31T04:03:24.288Z,87944.03
2023-12-31T04:06:09.557Z,87945.88
2023-12-31T04:08:54.477Z,87942.31
2023-12-31T04:11:39.576Z,87934.00
2023-12-31T04:14:24.730Z,87935.19
2023-12-31T04:17:09.802Z,87934.56
2023-12-31T04:19:55.040Z,87930.84
2023-12-31T04:22:40.079Z,87924.00
2023-12-31T04:25:25.267Z,87923.31
2023-12-31T04:28:10.506Z,87929.19
2023-12-31T04:30:55.598Z,87923.03
2023-12-31T04:33:40.722Z,87918.16
2023-12-31T04:36:25.813Z,87932.53
2023-12-31T04:39:10.915Z,87928.75
2023-12-31T04:41:55.965Z,87926.66
2023-12-31T04:44:41.158Z,87937.63
2023-12-31T04:47:26.167Z,87919.88
2023-12-31T04:50:11.388Z,87918.91
2023-12-31T04:52:56.581Z,87914.84
2023-12-31T04:55:41.513Z,87916.94
2023-12-31T04:58:26.551Z,87910.09
2023-12-31T05:01:12.630Z,87907.41
2023-12-31T05:03:57.734Z,87906.94
2023-12-31T05:06:42.932Z,87902.34
2023-12-31T05:09:28.103Z,87897.66
2023-12-31T05:12:13.228Z,87908.22
2023-12-31T05:14:58.373Z,87900.47
2023-12-31T05:17:43.640Z,87903.53
2023-12-31T05:20:28.479Z,87896.28
2023-12-31T05:23:13.678Z,87890.81
2023-12-31T05:25:58.655Z,87891.78
2023-12-31T05:28:43.917Z,87888.34
2023-12-31T05:31:28.985Z,87891.19
2023-12-31T05:34:14.126Z,87894.16
2023-12-31T05:36:59.322Z,87882.75
2023-12-31T05:39:44.367Z,87886.81
2023-12-31T05:42:29.464Z,87892.28
2023-12-31T05:45:14.543Z,87899.13
2023-12-31T05:47:59.771Z,87887.97
2023-12-31T05:50:44.768Z,87879.53
2023-12-31T05:53:29.797Z,87879.72
2023-12-31T05:56:15.046Z,87867.41
2023-12-31T05:59:00.049Z,87865.22
2023-12-31T06:01:45.305Z,87858.38
2023-12-31T06:04:30.457Z,87851.59
2023-12-31T06:07:15.690Z,87847.72
2023-12-31T06:10:00.766Z,87857.94
2023-12-31T06:12:45.732Z,87859.22
2023-12-31T06:15:31.009Z,87870.75
2023-12-31T06:18:16.063Z,87862.78
2023-12-31T06:21:01.342Z,87869.16
2023-12-31T06:23:46.380Z,87866.06
2023-12-31T06:26:31.625Z,87876.50
2023-12-31T06:29:16.687Z,87875.09
2023-12-31T06:32:01.719Z,87868.72
2023-12-31T06:34:46.797Z,87875.78
2023-12-31T06:37:31.753Z,87868.78
2023-12-31T06:40:16.916Z,87863.13
2023-12-31T06:43:02.059Z,87866.50
2023-12-31T06:45:47.566Z,87876.03
2023-12-31T06:48:32.809Z,87869.78
2023-12-31T06:51:17.920Z,87863.91
2023-12-31T06:54:03.031Z,87862.03
2023-12-31T06:56:47.992Z,87868.38
2023-12-31T06:59:33.276Z,87866.28
2023-12-31T07:02:18.402Z,87860.41
2023-12-31T07:05:03.493Z,87863.69
2023-12-31T07:07:48.503Z,87865.50
2023-12-31T07:10:33.549Z,87854.91
2023-12-31T07:13:18.673Z,87866.72
2023-12-31T07:16:03.597Z,87855.25
2023-12-31T07:18:48.986Z,87862.63
2023-12-31T07:21:34.476Z,87851.63
2023-12-31T07:24:19.680Z,87857.19
2023-12-31T07:27:04.754Z,87865.69
2023-12-31T07:29:49.716Z,87855.59
2023-12-31T07:32:34.987Z,87861.94
2023-12-31T07:35:19.962Z,87862.34
2023-12-31T07:38:05.167Z,87869.69
2023-12-31T07:40:50.201Z,87867.31
2023-12-31T07:43:35.383Z,87862.56
2023-12-31T07:46:20.902Z,87859.59
2023-12-31T07:49:06.114Z,87859.22
2023-12-31T07:51:51.157Z,87863.41
2023-12-31T07:54:36.239Z,87862.44
2023-12-31T07:57:21.266Z,87858.84
2023-12-31T08:00:06.218Z,87848.13
2023-12-31T08:02:51.217Z,87846.13
2023-12-31T08:05:36.445Z,87850.91
2023-12-31T08:08:21.397Z,87847.94
2023-12-31T08:11:06.475Z,87849.25
2023-12-31T08:13:51.562Z,87855.22
2023-12-31T08:16:36.841Z,87839.59
2023-12-31T08:19:21.792Z,87855.22
2023-12-31T08:22:06.983Z,87853.44
2023-12-31T08:24:52.020Z,87865.09
2023-12-31T08:27:37.168Z,87864.66
2023-12-31T08:30:22.229Z,87864.78
2023-12-31T08:33:07.493Z,87861.56
2023-12-31T08:35:52.844Z,87871.50
2023-12-31T08:38:37.787Z,87866.53
2023-12-31T08:41:23.135Z,87873.78
2023-12-31T08:44:08.347Z,87855.59
2023-12-31T08:46:53.503Z,87865.66
2023-12-31T08:49:38.628Z,87861.94
2023-12-31T08:52:23.707Z,87861.72
2023-12-31T08:55:08.973Z,87862.47
2023-12-31T08:57:54.135Z,87855.84
2023-12-31T09:00:39.113Z,87867.34
2023-12-31T09:03:23.981Z,87873.81
2023-12-31T09:06:09.286Z,87876.13
2023-12-31T09:08:54.328Z,87873.78
2023-12-31T09:11:39.379Z,87864.69
2023-12-31T09:14:24.668Z,87870.75
2023-12-31T09:17:09.582Z,87869.75
2023-12-31T09:19:54.740Z,87875.66
2023-12-31T09:22:39.735Z,87875.00
2023-12-31T09:25:24.912Z,87877.97
2023-12-31T09:28:09.789Z,87883.91
2023-12-31T09:30:54.957Z,87871.34
2023-12-31T09:33:40.084Z,87871.06
2023-12-31T09:36:25.016Z,87870.25
2023-12-31T09:39:10.111Z,87865.47
2023-12-31T09:41:55.144Z,87870.19
2023-12-31T09:44:40.422Z,87861.88
2023-12-31T09:47:25.536Z,87879.63
2023-12-31T09:50:10.836Z,87869.81
2023-12-31T09:52:55.873Z,87854.59
2023-12-31T09:55:40.943Z,87875.25
2023-12-31T09:58:26.058Z,87862.78
2023-12-31T10:01:11.082Z,87864.34
2023-12-31T10:03:56.284Z,87851.00
2023-12-31T10:06:41.356Z,87839.72
2023-12-31T10:12:11.639Z,87840.06
2023-12-31T10:14:56.620Z,87829.84
2023-12-31T10:17:42.144Z,87820.09
2023-12-31T10:20:26.955Z,87817.50
2023-12-31T10:23:12.124Z,87826.00
2023-12-31T10:25:57.026Z,87823.94
2023-12-31T10:28:42.338Z,87809.72
2023-12-31T10:31:27.791Z,87807.97
2023-12-31T10:34:12.523Z,87793.91
2023-12-31T10:36:57.662Z,87785.75
2023-12-31T10:39:42.713Z,87771.84
2023-12-31T10:42:27.783Z,87775.53
2023-12-31T10:45:12.783Z,87768.25
2023-12-31T10:47:58.033Z,87769.47
2023-12-31T10:50:42.925Z,87758.53
2023-12-31T10:53:28.082Z,87754.22
2023-12-31T10:56:13.269Z,87759.41
2023-12-31T10:58:58.417Z,87753.19
2023-12-31T11:01:43.744Z,87747.31
2023-12-31T11:04:28.738Z,87741.94
2023-12-31T11:07:13.871Z,87740.72
2023-12-31T11:09:58.893Z,87722.50
2023-12-31T11:12:44.033Z,87735.50
2023-12-31T11:15:29.082Z,87731.88
2023-12-31T11:18:14.418Z,87720.06
2023-12-31T11:20:59.184Z,87709.81
2023-12-31T11:23:44.424Z,87707.88
2023-12-31T11:26:29.392Z,87700.63
2023-12-31T11:29:14.056Z,87698.94
2023-12-31T11:31:59.243Z,87698.56
2023-12-31T11:34:44.338Z,87682.31
2023-12-31T11:37:29.092Z,87679.63
2023-12-31T11:40:14.256Z,87664.00
2023-12-31T11:42:59.451Z,87658.22
2023-12-31T11:45:44.474Z,87653.47
2023-12-31T11:48:29.751Z,87636.06
2023-12-31T11:51:14.963Z,87633.94
2023-12-31T11:54:03.332Z,87628.09
2023-12-31T11:56:48.640Z,87611.44
2023-12-31T11:59:33.684Z,87619.56
2023-12-31T12:02:19.038Z,87604.41
2023-12-31T12:05:04.485Z,87606.44
2023-12-31T12:07:49.515Z,87610.34
2023-12-31T12:10:34.608Z,87609.28
2023-12-31T12:13:19.692Z,87599.03
2023-12-31T12:16:04.708Z,87604.66
2023-12-31T12:18:49.802Z,87595.81
2023-12-31T12:21:34.770Z,87585.03
2023-12-31T12:24:19.911Z,87569.59
2023-12-31T12:27:07.636Z,87558.41
2023-12-31T12:29:53.083Z,87552.59
2023-12-31T12:32:38.290Z,87552.66
2023-12-31T12:35:23.319Z,87556.53
2023-12-31T12:38:08.467Z,87554.66
2023-12-31T12:40:53.686Z,87550.47
2023-12-31T12:43:38.652Z,87542.47
2023-12-31T12:46:23.979Z,87543.91
2023-12-31T12:49:08.941Z,87530.06
2023-12-31T12:51:54.115Z,87537.31
2023-12-31T12:54:39.237Z,87526.59
2023-12-31T12:57:24.295Z,87525.81
2023-12-31T13:00:09.388Z,87513.84
2023-12-31T13:02:54.478Z,87503.72
2023-12-31T13:05:39.729Z,87495.25
2023-12-31T13:08:24.590Z,87502.00
2023-12-31T13:11:09.668Z,87498.19
2023-12-31T13:13:54.787Z,87488.22
2023-12-31T13:16:47.468Z,87475.09
2023-12-31T13:19:35.109Z,87473.09
2023-12-31T13:22:20.376Z,87476.47
2023-12-31T13:25:05.286Z,87474.88
2023-12-31T13:27:50.371Z,87469.06
2023-12-31T13:30:35.475Z,87441.00
2023-12-31T13:33:20.541Z,87453.25
2023-12-31T13:36:05.645Z,87450.78
2023-12-31T13:38:50.771Z,87447.56
2023-12-31T13:41:36.101Z,87456.56
2023-12-31T13:44:21.024Z,87446.75
2023-12-31T13:47:06.264Z,87434.34
2023-12-31T13:49:51.283Z,87423.59
2023-12-31T13:52:36.434Z,87424.66
2023-12-31T13:55:21.601Z,87423.06
2023-12-31T13:58:06.607Z,87415.56
2023-12-31T14:00:51.900Z,87431.16
2023-12-31T14:03:36.904Z,87449.13
2023-12-31T14:06:22.094Z,87464.53
2023-12-31T14:09:07.096Z,87469.91
2023-12-31T14:11:52.301Z,87464.06
2023-12-31T14:14:37.379Z,87470.47
2023-12-31T14:17:22.571Z,87495.81
2023-12-31T14:20:07.802Z,87491.53
2023-12-31T14:22:52.906Z,87501.28
2023-12-31T14:25:38.141Z,87506.53
2023-12-31T14:28:23.195Z,87514.19
2023-12-31T14:31:08.348Z,87525.53
2023-12-31T14:33:57.459Z,87532.81
2023-12-31T14:36:48.429Z,87551.97
2023-12-31T14:39:33.466Z,87562.19
2023-12-31T14:42:18.747Z,87573.31
2023-12-31T14:45:03.833Z,87586.50
2023-12-31T14:47:49.033Z,87607.47
2023-12-31T14:50:34.097Z,87610.28
2023-12-31T14:53:19.123Z,87642.38
2023-12-31T14:56:04.260Z,87656.94
2023-12-31T14:58:49.363Z,87663.75
2023-12-31T15:01:34.537Z,87681.41
2023-12-31T15:04:19.460Z,87684.16
2023-12-31T15:07:04.664Z,87695.56
2023-12-31T15:09:49.671Z,87717.19
2023-12-31T15:12:34.781Z,87726.72
2023-12-31T15:15:20.024Z,87733.81
2023-12-31T15:18:05.644Z,87711.75
2023-12-31T15:20:50.768Z,87716.50
2023-12-31T15:23:36.386Z,87725.22
2023-12-31T15:26:21.560Z,87724.84
2023-12-31T15:29:06.610Z,87725.91
2023-12-31T15:31:51.617Z,87727.22
2023-12-31T15:34:36.692Z,87727.41
2023-12-31T15:37:21.797Z,87734.25
2023-12-31T15:40:06.745Z,87727.56
2023-12-31T15:42:51.878Z,87736.13
2023-12-31T15:45:37.037Z,87734.19
2023-12-31T15:48:22.086Z,87749.50
2023-12-31T15:51:07.176Z,87742.31
2023-12-31T15:53:52.399Z,87744.59
2023-12-31T15:56:37.521Z,87740.13
2023-12-31T15:59:22.672Z,87751.56
2023-12-31T16:02:07.745Z,87758.00
2023-12-31T16:04:52.851Z,87763.34
2023-12-31T16:07:37.944Z,87761.13
2023-12-31T16:10:23.054Z,87767.78
2023-12-31T16:13:08.018Z,87764.19
2023-12-31T16:15:53.005Z,87768.88
2023-12-31T16:18:38.306Z,87777.03
2023-12-31T16:21:23.172Z,87770.25
2023-12-31T16:24:08.341Z,87785.91
2023-12-31T16:26:53.539Z,87776.34
2023-12-31T16:29:38.765Z,87775.03
2023-12-31T16:32:23.875Z,87774.97
2023-12-31T16:35:08.886Z,87771.56
2023-12-31T16:37:53.968Z,87786.19
2023-12-31T16:40:39.000Z,87788.56
2023-12-31T16:43:24.243Z,87791.84
2023-12-31T16:46:09.036Z,87788.56
2023-12-31T16:48:54.269Z,87785.00
2023-12-31T16:51:42.184Z,87783.59
2023-12-31T16:54:27.327Z,87792.84
2023-12-31T16:57:12.406Z,87790.84
2023-12-31T16:59:57.509Z,87797.72
2023-12-31T17:02:42.631Z,87789.06
2023-12-31T17:05:27.580Z,87794.00
2023-12-31T17:08:12.654Z,87792.63
2023-12-31T17:10:57.826Z,87796.16
2023-12-31T17:13:42.794Z,87801.84
2023-12-31T17:16:27.991Z,87804.22
2023-12-31T17:19:12.909Z,87812.69
2023-12-31T17:21:57.928Z,87803.47
2023-12-31T17:24:42.906Z,87810.91
2023-12-31T17:27:28.136Z,87808.25
2023-12-31T17:30:13.269Z,87809.06
2023-12-31T17:32:58.181Z,87810.63
2023-12-31T17:35:43.209Z,87804.19
2023-12-31T17:38:28.326Z,87806.25
2023-12-31T17:41:13.604Z,87818.22
2023-12-31T17:43:58.727Z,87816.72
2023-12-31T17:46:44.106Z,87817.44
2023-12-31T17:49:29.215Z,87810.78
2023-12-31T17:52:14.324Z,87815.78
2023-12-31T17:54:59.489Z,87820.72
2023-12-31T17:57:44.490Z,87820.50
2023-12-31T18:00:30.005Z,87822.31
2023-12-31T18:03:14.808Z,87824.47
2023-12-31T18:06:00.008Z,87834.50
2023-12-31T18:08:44.972Z,87835.56
2023-12-31T18:11:29.960Z,87839.88
2023-12-31T18:14:15.184Z,87831.06
2023-12-31T18:17:00.365Z,87824.78
2023-12-31T18:19:45.626Z,87818.25
2023-12-31T18:22:30.559Z,87828.25
2023-12-31T18:25:15.850Z,87828.75
2023-12-31T18:28:00.843Z,87834.47
2023-12-31T18:30:47.600Z,87828.41
2023-12-31T18:33:33.191Z,87831.38
2023-12-31T18:36:18.223Z,87834.66
2023-12-31T18:39:03.381Z,87835.09
2023-12-31T18:41:48.325Z,87838.28
2023-12-31T18:44:33.508Z,87845.97
2023-12-31T18:47:18.591Z,87849.22
2023-12-31T18:50:03.677Z,87845.47
2023-12-31T18:52:48.771Z,87838.50
2023-12-31T18:55:33.744Z,87840.38
2023-12-31T18:58:18.865Z,87851.81
2023-12-31T19:01:03.930Z,87853.47
2023-12-31T19:03:49.071Z,87852.66
2023-12-31T19:06:34.109Z,87848.59
2023-12-31T19:09:19.119Z,87853.69
2023-12-31T19:12:04.542Z,87854.38
2023-12-31T19:14:49.705Z,87860.25
2023-12-31T19:17:34.884Z,87853.75
2023-12-31T19:20:19.972Z,87855.72
2023-12-31T19:23:05.167Z,87849.16
2023-12-31T19:25:50.128Z,87855.16
2023-12-31T19:28:35.236Z,87860.09
2023-12-31T19:31:20.350Z,87848.00
2023-12-31T19:34:05.506Z,87845.84
2023-12-31T19:36:50.765Z,87853.53
2023-12-31T19:39:37.926Z,87839.25
2023-12-31T19:42:23.028Z,87836.38
2023-12-31T19:45:08.330Z,87838.00
2023-12-31T19:47:53.415Z,87832.91
2023-12-31T19:50:38.458Z,87831.75
2023-12-31T19:53:24.644Z,87831.34
2023-12-31T19:56:09.737Z,87830.81
2023-12-31T19:58:54.830Z,87839.69
2023-12-31T20:01:39.900Z,87834.13
2023-12-31T20:04:25.235Z,87823.84
2023-12-31T20:07:10.172Z,87826.47
2023-12-31T20:09:55.332Z,87821.59
2023-12-31T20:12:40.348Z,87827.50
2023-12-31T20:15:25.621Z,87831.38
2023-12-31T20:18:10.777Z,87831.09
2023-12-31T20:20:55.893Z,87829.72
2023-12-31T20:23:41.083Z,87828.41
2023-12-31T20:26:26.130Z,87831.69
2023-12-31T20:29:12.789Z,87836.59
2023-12-31T20:31:59.424Z,87840.09
2023-12-31T20:34:44.522Z,87846.84
2023-12-31T20:37:29.639Z,87843.66
2023-12-31T20:40:14.654Z,87842.41
2023-12-31T20:42:59.856Z,87844.97
2023-12-31T20:45:44.890Z,87851.47
2023-12-31T20:48:30.170Z,87848.81
2023-12-31T20:51:15.269Z,87851.94
2023-12-31T20:54:00.354Z,87846.59
2023-12-31T20:56:45.599Z,87846.53
2023-12-31T20:59:30.664Z,87838.44
2023-12-31T21:02:16.036Z,87839.94
2023-12-31T21:05:01.087Z,87836.59
2023-12-31T21:07:46.183Z,87842.16
2023-12-31T21:10:31.164Z,87846.06
2023-12-31T21:13:16.176Z,87846.69
2023-12-31T21:16:03.597Z,87844.66
2023-12-31T21:18:49.439Z,87841.66
2023-12-31T21:21:34.497Z,87843.56
2023-12-31T21:24:19.629Z,87837.41
2023-12-31T21:27:04.622Z,87838.97
2023-12-31T21:29:49.928Z,87844.53
2023-12-31T21:32:35.030Z,87851.97
2023-12-31T21:35:19.940Z,87857.94
2023-12-31T21:38:05.111Z,87860.19
2023-12-31T21:40:50.640Z,87861.16
2023-12-31T21:43:35.562Z,87868.44
2023-12-31T21:46:20.636Z,87870.16
2023-12-31T21:49:05.937Z,87868.84
2023-12-31T21:51:51.011Z,87882.09
2023-12-31T21:54:36.210Z,87882.84
2023-12-31T21:57:24.698Z,87876.22
2023-12-31T22:00:10.329Z,87886.50
2023-12-31T22:02:55.581Z,87893.59
2023-12-31T22:05:40.724Z,87889.69
2023-12-31T22:08:25.715Z,87895.25
2023-12-31T22:11:10.767Z,87884.28
2023-12-31T22:13:56.140Z,87902.56
2023-12-31T22:16:41.234Z,87912.44
2023-12-31T22:19:26.341Z,87914.28
2023-12-31T22:22:11.525Z,87909.06
2023-12-31T22:24:56.587Z,87909.94
2023-12-31T22:27:41.769Z,87907.72
2023-12-31T22:30:26.897Z,87911.19
2023-12-31T22:33:11.997Z,87903.84
2023-12-31T22:35:56.980Z,87913.75
2023-12-31T22:38:41.999Z,87910.63
2023-12-31T22:41:27.093Z,87917.56
2023-12-31T22:44:12.186Z,87913.06
2023-12-31T22:46:57.411Z,87918.41
2023-12-31T22:49:42.393Z,87925.22
2023-12-31T22:52:27.598Z,87932.97
2023-12-31T22:55:12.751Z,87936.72
2023-12-31T22:57:57.967Z,87937.16
2023-12-31T23:00:43.364Z,87939.97
2023-12-31T23:03:28.255Z,87934.16
2023-12-31T23:06:13.451Z,87945.44
2023-12-31T23:08:58.361Z,87944.97
2023-12-31T23:11:43.632Z,87951.56
2023-12-31T23:14:28.718Z,87954.59
2023-12-31T23:17:13.722Z,87966.94
2023-12-31T23:19:58.830Z,87962.94
2023-12-31T23:22:43.825Z,87976.06
2023-12-31T23:25:28.986Z,87967.41
2023-12-31T23:28:13.959Z,87962.78
2023-12-31T23:30:59.194Z,87963.28
2023-12-31T23:33:44.026Z,87977.38
2023-12-31T23:36:29.145Z,87974.16
2023-12-31T23:39:14.217Z,87978.38
2023-12-31T23:41:59.252Z,87970.53
2023-12-31T23:44:44.467Z,87972.47
2023-12-31T23:47:29.574Z,87966.25
2023-12-31T23:50:14.884Z,87980.00
2023-12-31T23:52:59.856Z,87982.06
2023-12-31T23:55:45.017Z,87978.97
2023-12-31T23:58:30.179Z,87969.97
